createdAt,value
2023-04-22T00:00:37.803Z,65.30
2023-04-22T00:03:44.277Z,65.30
2023-04-22T00:06:48.287Z,65.40
2023-04-22T00:09:58.957Z,65.40
2023-04-22T00:13:02.650Z,65.40
2023-04-22T00:16:08.644Z,65.50
2023-04-22T00:19:12.729Z,65.40
2023-04-22T00:22:18.795Z,65.60
2023-04-22T00:25:24.391Z,65.60
2023-04-22T00:28:30.114Z,65.60
2023-04-22T00:31:33.844Z,65.60
2023-04-22T00:34:42.714Z,65.70
2023-04-22T00:37:46.446Z,65.70
2023-04-22T00:40:54.160Z,65.80
2023-04-22T00:43:58.648Z,65.70
2023-04-22T00:47:04.564Z,65.80
2023-04-22T00:50:10.111Z,65.80
2023-04-22T00:53:16.017Z,65.80
2023-04-22T00:56:21.929Z,65.90
2023-04-22T00:59:28.357Z,65.90
2023-04-22T01:02:32.242Z,65.90
2023-04-22T01:05:38.723Z,65.90
2023-04-22T01:08:42.575Z,65.90
2023-04-22T01:11:50.297Z,65.90
2023-04-22T01:14:54.036Z,66.00
2023-04-22T01:18:00.653Z,66.00
2023-04-22T01:21:04.453Z,66.00
2023-04-22T01:24:12.317Z,66.00
2023-04-22T01:27:16.119Z,66.00
2023-04-22T01:30:22.154Z,66.00
2023-04-22T01:33:25.916Z,66.10
2023-04-22T01:36:32.241Z,66.10
2023-04-22T01:39:38.280Z,66.20
2023-04-22T01:42:44.135Z,66.30
2023-04-22T01:45:47.930Z,66.20
2023-04-22T01:48:53.680Z,66.20
2023-04-22T01:51:59.353Z,66.20
2023-04-22T01:55:07.737Z,66.30
2023-04-22T01:58:11.442Z,66.30
2023-04-22T02:01:17.753Z,66.30
2023-04-22T02:04:21.575Z,66.30
2023-04-22T02:07:27.268Z,66.40
2023-04-22T02:10:33.063Z,66.40
2023-04-22T02:13:39.323Z,66.40
2023-04-22T02:16:43.548Z,66.40
2023-04-22T02:19:49.389Z,66.50
2023-04-22T02:22:53.179Z,66.50
2023-04-22T02:26:01.131Z,66.50
2023-04-22T02:29:05.249Z,66.50
2023-04-22T02:32:10.976Z,66.50
2023-04-22T02:35:14.738Z,66.50
2023-04-22T02:38:20.733Z,66.60
2023-04-22T02:41:26.369Z,66.50
2023-04-22T02:44:32.187Z,66.50
2023-04-22T02:47:35.946Z,66.60
2023-04-22T02:50:41.739Z,66.60
2023-04-22T02:53:45.443Z,66.70
2023-04-22T02:56:53.088Z,67.40
2023-04-22T02:59:56.786Z,66.80
2023-04-22T03:03:03.421Z,66.80
2023-04-22T03:06:10.427Z,66.90
2023-04-22T03:09:16.742Z,66.80
2023-04-22T03:12:22.363Z,66.80
2023-04-22T03:15:28.067Z,66.80
2023-04-22T03:18:32.143Z,66.90
2023-04-22T03:21:37.951Z,66.90
2023-04-22T03:24:42.135Z,66.90
2023-04-22T03:27:50.304Z,67.00
2023-04-22T03:30:53.969Z,67.00
2023-04-22T03:34:00.779Z,67.00
2023-04-22T03:37:06.562Z,67.00
2023-04-22T03:40:13.754Z,67.10
2023-04-22T03:43:19.877Z,67.20
2023-04-22T03:46:35.906Z,67.20
2023-04-22T03:49:51.032Z,67.20
2023-04-22T03:52:56.827Z,67.20
2023-04-22T03:56:00.537Z,67.30
2023-04-22T03:59:08.479Z,67.30
2023-04-22T04:02:12.994Z,67.30
2023-04-22T04:05:19.219Z,67.30
2023-04-22T04:08:24.280Z,67.30
2023-04-22T04:11:30.040Z,67.40
2023-04-22T04:14:36.551Z,67.40
2023-04-22T04:17:44.148Z,67.40
2023-04-22T04:20:47.819Z,68.10
2023-04-22T04:23:54.560Z,67.50
2023-04-22T04:27:03.265Z,67.50
2023-04-22T04:30:19.212Z,68.10
2023-04-22T04:33:27.111Z,67.50
2023-04-22T04:36:32.886Z,67.50
2023-04-22T04:39:48.011Z,67.90
2023-04-22T04:42:55.190Z,67.60
2023-04-22T04:46:05.267Z,67.60
2023-04-22T04:49:14.577Z,67.60
2023-04-22T04:52:27.644Z,67.70
2023-04-22T04:55:33.478Z,67.90
2023-04-22T04:58:40.761Z,68.20
2023-04-22T05:02:00.926Z,69.40
2023-04-22T05:05:07.115Z,70.40
2023-04-22T05:08:13.708Z,70.60
2023-04-22T05:11:18.820Z,69.80
2023-04-22T05:14:27.592Z,70.70
2023-04-22T05:17:33.324Z,71.90
2023-04-22T05:20:39.456Z,73.20
2023-04-22T05:23:43.347Z,73.20
2023-04-22T05:26:49.223Z,72.00
2023-04-22T05:29:55.958Z,68.00
2023-04-22T05:33:09.907Z,67.90
2023-04-22T05:36:14.189Z,68.00
2023-04-22T05:39:20.645Z,67.90
2023-04-22T05:42:26.147Z,67.90
2023-04-22T05:45:31.888Z,68.00
2023-04-22T05:48:38.142Z,68.00
2023-04-22T05:51:47.666Z,68.00
2023-04-22T05:54:54.527Z,68.00
2023-04-22T05:58:00.204Z,68.10
2023-04-22T06:01:22.400Z,68.10
2023-04-22T06:04:37.765Z,68.20
2023-04-22T06:07:42.753Z,68.30
2023-04-22T06:10:48.441Z,68.30
2023-04-22T06:13:53.362Z,68.30
2023-04-22T06:16:59.162Z,68.30
2023-04-22T06:20:04.932Z,68.30
2023-04-22T06:23:10.729Z,68.40
2023-04-22T06:26:14.500Z,68.30
2023-04-22T06:29:20.234Z,68.40
2023-04-22T06:32:24.633Z,68.40
2023-04-22T06:35:32.667Z,68.40
2023-04-22T06:38:37.382Z,68.40
2023-04-22T06:42:08.314Z,68.40
2023-04-22T06:45:27.190Z,68.40
2023-04-22T06:48:52.013Z,69.20
2023-04-22T06:52:26.756Z,68.50
2023-04-22T06:55:35.882Z,68.50
2023-04-22T06:58:39.585Z,68.50
2023-04-22T07:01:45.498Z,68.50
2023-04-22T07:04:49.322Z,68.60
2023-04-22T07:07:57.020Z,68.70
2023-04-22T07:11:01.877Z,68.60
2023-04-22T07:14:14.381Z,68.70
2023-04-22T07:17:21.755Z,68.70
2023-04-22T07:20:27.476Z,68.80
2023-04-22T07:23:33.163Z,68.80
2023-04-22T07:26:38.850Z,68.80
2023-04-22T07:29:42.778Z,68.90
2023-04-22T07:32:48.964Z,68.80
2023-04-22T07:35:52.864Z,68.80
2023-04-22T07:39:00.580Z,68.90
2023-04-22T07:42:04.288Z,68.90
2023-04-22T07:45:10.377Z,69.00
2023-04-22T07:48:14.133Z,69.00
2023-04-22T07:51:19.844Z,69.00
2023-04-22T07:54:25.668Z,69.00
2023-04-22T07:57:35.736Z,69.00
2023-04-22T08:00:39.556Z,69.00
2023-04-22T08:03:45.512Z,69.00
2023-04-22T08:06:49.386Z,69.00
2023-04-22T08:09:57.640Z,69.00
2023-04-22T08:13:01.604Z,69.00
2023-04-22T08:16:08.306Z,68.90
2023-04-22T08:19:12.012Z,68.80
2023-04-22T08:22:18.417Z,68.80
2023-04-22T08:25:24.086Z,68.80
2023-04-22T08:28:30.040Z,68.80
2023-04-22T08:31:33.859Z,68.70
2023-04-22T08:34:39.619Z,68.70
2023-04-22T08:37:43.934Z,68.60
2023-04-22T08:40:51.972Z,68.70
2023-04-22T08:43:55.692Z,68.60
2023-04-22T08:47:02.894Z,68.60
2023-04-22T08:50:09.168Z,68.60
2023-04-22T08:53:15.285Z,68.40
2023-04-22T08:56:21.824Z,68.40
2023-04-22T08:59:27.866Z,68.40
2023-04-22T09:02:33.431Z,68.40
2023-04-22T09:05:41.178Z,68.30
2023-04-22T09:08:45.108Z,68.20
2023-04-22T09:11:52.762Z,68.20
2023-04-22T09:14:56.780Z,68.10
2023-04-22T09:18:04.980Z,68.10
2023-04-22T09:21:08.750Z,68.00
2023-04-22T09:24:14.504Z,67.90
2023-04-22T09:27:21.123Z,67.90
2023-04-22T09:30:27.843Z,67.80
2023-04-22T09:33:33.177Z,67.70
2023-04-22T09:36:39.024Z,67.70
2023-04-22T09:39:43.673Z,67.70
2023-04-22T09:42:52.157Z,67.60
2023-04-22T09:45:55.910Z,67.70
2023-04-22T09:49:01.709Z,67.70
2023-04-22T09:52:05.397Z,67.70
2023-04-22T09:55:11.352Z,67.60
2023-04-22T09:58:18.175Z,67.60
2023-04-22T10:01:24.032Z,67.70
2023-04-22T10:04:28.532Z,67.60
2023-04-22T10:07:34.570Z,67.60
2023-04-22T10:10:39.007Z,67.50
2023-04-22T10:13:46.652Z,67.40
2023-04-22T10:16:51.215Z,67.40
2023-04-22T10:19:57.363Z,67.30
2023-04-22T10:23:01.104Z,67.30
2023-04-22T10:26:06.979Z,67.20
2023-04-22T10:29:16.327Z,67.10
2023-04-22T10:32:26.179Z,67.10
2023-04-22T10:35:30.575Z,67.00
2023-04-22T10:38:36.496Z,66.90
2023-04-22T10:41:40.220Z,67.00
2023-04-22T10:44:52.090Z,68.30
2023-04-22T10:47:55.799Z,68.90
2023-04-22T10:51:01.485Z,69.90
2023-04-22T10:54:05.347Z,70.40
2023-04-22T10:57:11.784Z,71.00
2023-04-22T11:00:21.892Z,71.90
2023-04-22T11:03:29.242Z,71.40
2023-04-22T11:06:33.533Z,72.30
2023-04-22T11:09:41.140Z,75.20
2023-04-22T11:12:45.443Z,74.90
2023-04-22T11:15:55.896Z,73.80
2023-04-22T11:19:00.269Z,72.90
2023-04-22T11:22:06.625Z,72.60
2023-04-22T11:25:10.889Z,72.30
2023-04-22T11:28:22.373Z,72.40
2023-04-22T11:31:28.036Z,70.40
2023-04-22T11:34:33.894Z,70.40
2023-04-22T11:37:41.556Z,70.10
2023-04-22T11:40:47.839Z,70.00
2023-04-22T11:43:51.962Z,69.30
2023-04-22T11:47:00.123Z,69.60
2023-04-22T11:50:06.499Z,69.60
2023-04-22T11:53:16.060Z,69.60
2023-04-22T11:56:19.787Z,68.60
2023-04-22T11:59:25.869Z,68.90
2023-04-22T12:02:31.571Z,68.80
2023-04-22T12:05:38.632Z,71.10
2023-04-22T12:08:44.459Z,71.70
2023-04-22T12:11:50.185Z,74.10
2023-04-22T12:14:53.879Z,73.70
2023-04-22T12:18:03.032Z,74.10
2023-04-22T12:21:10.162Z,73.60
2023-04-22T12:24:19.994Z,73.50
2023-04-22T12:27:23.724Z,73.50
2023-04-22T12:30:29.441Z,73.30
2023-04-22T12:33:35.117Z,72.10
2023-04-22T12:36:41.423Z,71.70
2023-04-22T12:39:45.249Z,71.60
2023-04-22T12:42:50.967Z,71.60
2023-04-22T12:45:55.056Z,71.40
2023-04-22T12:49:02.745Z,71.60
2023-04-22T12:52:06.823Z,71.00
2023-04-22T12:55:13.385Z,71.30
2023-04-22T12:58:17.097Z,71.10
2023-04-22T13:01:22.838Z,71.20
2023-04-22T13:04:28.637Z,70.40
2023-04-22T13:07:34.508Z,70.70
2023-04-22T13:10:38.248Z,70.50
2023-04-22T13:13:43.922Z,69.90
2023-04-22T13:16:47.992Z,69.80
2023-04-22T13:19:55.846Z,69.60
2023-04-22T13:22:59.505Z,69.60
2023-04-22T13:26:05.345Z,69.60
2023-04-22T13:29:29.114Z,69.70
2023-04-22T13:32:34.930Z,69.80
2023-04-22T13:35:40.915Z,69.80
2023-04-22T13:38:46.602Z,69.10
2023-04-22T13:41:51.623Z,69.60
2023-04-22T13:44:57.372Z,69.40
2023-04-22T13:48:01.153Z,69.40
2023-04-22T13:51:08.893Z,69.60
2023-04-22T13:54:12.880Z,69.50
2023-04-22T13:57:20.009Z,69.50
2023-04-22T14:00:23.825Z,69.60
2023-04-22T14:03:30.744Z,69.80
2023-04-22T14:06:36.527Z,69.30
2023-04-22T14:09:42.684Z,69.30
2023-04-22T14:12:46.659Z,69.20
2023-04-22T14:15:52.551Z,69.40
2023-04-22T14:18:57.842Z,69.40
2023-04-22T14:22:05.910Z,70.00
2023-04-22T14:25:10.318Z,69.50
2023-04-22T14:28:16.113Z,69.10
2023-04-22T14:31:19.979Z,69.20
2023-04-22T14:34:26.376Z,69.50
2023-04-22T14:37:32.568Z,69.10
2023-04-22T14:40:38.401Z,69.60
2023-04-22T14:43:42.126Z,69.60
2023-04-22T14:46:47.839Z,69.40
2023-04-22T14:49:51.728Z,69.40
2023-04-22T14:52:59.572Z,69.50
2023-04-22T14:56:03.319Z,69.60
2023-04-22T14:59:09.013Z,69.30
2023-04-22T15:02:15.356Z,68.90
2023-04-22T15:05:21.779Z,69.30
2023-04-22T15:08:27.387Z,69.00
2023-04-22T15:11:33.126Z,69.10
2023-04-22T15:14:37.442Z,69.40
2023-04-22T15:17:43.480Z,69.30
2023-04-22T15:20:47.279Z,69.40
2023-04-22T15:23:54.967Z,69.10
2023-04-22T15:26:58.785Z,69.60
2023-04-22T15:30:05.392Z,69.70
2023-04-22T15:33:09.337Z,70.00
2023-04-22T15:36:17.622Z,69.50
2023-04-22T15:39:24.941Z,70.00
2023-04-22T15:42:30.690Z,69.70
2023-04-22T15:45:35.444Z,69.70
2023-04-22T15:48:43.941Z,69.90
2023-04-22T15:51:47.749Z,69.70
2023-04-22T15:54:58.208Z,69.70
2023-04-22T15:58:02.185Z,69.80
2023-04-22T16:01:18.747Z,70.30
2023-04-22T16:04:23.519Z,69.90
2023-04-22T16:07:29.536Z,70.30
2023-04-22T16:10:35.155Z,70.90
2023-04-22T16:13:40.849Z,70.80
2023-04-22T16:16:45.358Z,70.70
2023-04-22T16:19:51.179Z,70.60
2023-04-22T16:22:54.918Z,70.80
2023-04-22T16:26:04.107Z,70.60
2023-04-22T16:29:07.857Z,70.70
2023-04-22T16:32:13.537Z,71.30
2023-04-22T16:35:17.374Z,71.20
2023-04-22T16:38:23.079Z,71.40
2023-04-22T16:41:31.981Z,71.40
2023-04-22T16:44:37.760Z,71.40
2023-04-22T16:47:41.591Z,71.20
2023-04-22T16:50:47.310Z,71.20
2023-04-22T16:53:50.975Z,71.40
2023-04-22T16:56:58.993Z,71.50
2023-04-22T17:00:05.357Z,71.00
2023-04-22T17:03:11.414Z,71.30
2023-04-22T17:06:15.213Z,71.60
2023-04-22T17:09:21.083Z,71.70
2023-04-22T17:12:26.659Z,71.30
2023-04-22T17:15:32.412Z,72.00
2023-04-22T17:18:36.083Z,72.00
2023-04-22T17:21:41.827Z,71.50
2023-04-22T17:24:45.609Z,71.90
2023-04-22T17:27:53.212Z,71.90
2023-04-22T17:30:56.873Z,71.50
2023-04-22T17:34:03.081Z,71.90
2023-04-22T17:37:06.994Z,72.20
2023-04-22T17:40:13.050Z,72.10
2023-04-22T17:43:18.658Z,72.30
2023-04-22T17:46:24.502Z,72.90
2023-04-22T17:49:28.202Z,72.60
2023-04-22T17:52:33.900Z,72.80
2023-04-22T17:55:38.379Z,72.50
2023-04-22T17:58:46.114Z,72.20
2023-04-22T18:01:49.811Z,72.70
2023-04-22T18:04:55.544Z,72.30
2023-04-22T18:08:01.840Z,72.90
2023-04-22T18:11:07.565Z,72.90
2023-04-22T18:14:13.539Z,72.70
2023-04-22T18:17:19.903Z,72.30
2023-04-22T18:20:23.675Z,73.10
2023-04-22T18:23:30.208Z,73.10
2023-04-22T18:26:33.828Z,73.20
2023-04-22T18:29:41.847Z,72.70
2023-04-22T18:32:45.812Z,73.20
2023-04-22T18:35:51.541Z,73.00
2023-04-22T18:38:55.268Z,73.40
2023-04-22T18:42:01.534Z,73.20
2023-04-22T18:45:08.078Z,73.10
2023-04-22T18:48:13.820Z,73.20
2023-04-22T18:51:17.570Z,73.20
2023-04-22T18:54:23.442Z,73.30
2023-04-22T18:57:27.165Z,73.40
2023-04-22T19:00:34.738Z,73.40
2023-04-22T19:03:39.596Z,73.20
2023-04-22T19:06:45.518Z,73.30
2023-04-22T19:09:49.294Z,73.70
2023-04-22T19:12:55.031Z,73.40
2023-04-22T19:16:00.776Z,73.80
2023-04-22T19:19:06.863Z,73.00
2023-04-22T19:22:11.911Z,73.40
2023-04-22T19:25:18.440Z,73.50
2023-04-22T19:28:22.197Z,73.80
2023-04-22T19:31:31.005Z,73.30
2023-04-22T19:34:35.764Z,73.70
2023-04-22T19:37:41.498Z,73.30
2023-04-22T19:40:45.158Z,73.80
2023-04-22T19:43:50.856Z,73.50
2023-04-22T19:46:56.725Z,73.90
2023-04-22T19:50:02.981Z,73.90
2023-04-22T19:53:07.874Z,73.60
2023-04-22T19:56:13.768Z,73.70
2023-04-22T19:59:17.580Z,74.20
2023-04-22T20:02:25.729Z,74.10
2023-04-22T20:05:29.952Z,73.60
2023-04-22T20:08:35.987Z,73.80
2023-04-22T20:11:39.749Z,74.00
2023-04-22T20:14:45.939Z,73.50
2023-04-22T20:17:51.928Z,74.10
2023-04-22T20:20:59.381Z,74.50
2023-04-22T20:24:04.239Z,74.30
2023-04-22T20:27:10.085Z,74.50
2023-04-22T20:30:14.651Z,74.60
2023-04-22T20:33:22.824Z,73.90
2023-04-22T20:36:27.293Z,74.50
2023-04-22T20:39:33.374Z,74.40
2023-04-22T20:42:37.894Z,74.20
2023-04-22T20:45:43.644Z,74.60
2023-04-22T20:48:49.273Z,74.10
2023-04-22T20:51:55.803Z,74.60
2023-04-22T20:54:59.496Z,74.80
2023-04-22T20:58:05.246Z,75.30
2023-04-22T21:01:09.269Z,74.80
2023-04-22T21:04:17.197Z,74.50
2023-04-22T21:07:23.777Z,74.80
2023-04-22T21:10:30.065Z,75.20
2023-04-22T21:13:34.185Z,74.60
2023-04-22T21:16:41.554Z,74.70
2023-04-22T21:19:47.941Z,75.00
2023-04-22T21:22:55.145Z,74.90
2023-04-22T21:26:00.989Z,75.20
2023-04-22T21:29:07.134Z,74.90
2023-04-22T21:32:11.019Z,74.40
2023-04-22T21:35:18.797Z,74.70
2023-04-22T21:38:22.580Z,75.30
2023-04-22T21:41:28.362Z,75.60
2023-04-22T21:44:31.992Z,74.80
2023-04-22T21:47:37.783Z,74.90
2023-04-22T21:50:43.480Z,74.60
2023-04-22T21:53:49.346Z,74.80
2023-04-22T21:56:53.054Z,74.40
2023-04-22T21:59:58.752Z,74.40
2023-04-22T22:03:02.609Z,74.40
2023-04-22T22:06:10.516Z,75.00
2023-04-22T22:09:14.468Z,74.60
2023-04-22T22:12:20.238Z,74.80
2023-04-22T22:15:25.936Z,74.60
2023-04-22T22:18:31.722Z,74.70
2023-04-22T22:21:37.363Z,74.60
2023-04-22T22:24:43.593Z,74.70
2023-04-22T22:27:48.446Z,74.80
2023-04-22T22:30:59.102Z,74.70
2023-04-22T22:34:02.852Z,74.80
2023-04-22T22:37:10.592Z,75.20
2023-04-22T22:40:14.426Z,74.70
2023-04-22T22:43:20.209Z,74.80
2023-04-22T22:46:24.250Z,74.30
2023-04-22T22:49:30.188Z,74.40
2023-04-22T22:52:35.965Z,74.70
2023-04-22T22:55:41.720Z,75.10
2023-04-22T22:58:47.600Z,74.60
2023-04-22T23:01:53.366Z,74.90
2023-04-22T23:04:57.836Z,74.80
2023-04-22T23:08:06.387Z,74.50
2023-04-22T23:11:10.636Z,75.00
2023-04-22T23:14:17.324Z,74.70
2023-04-22T23:17:21.950Z,74.90
2023-04-22T23:20:28.410Z,75.00
2023-04-22T23:23:34.156Z,75.20
2023-04-22T23:26:40.065Z,74.80
2023-04-22T23:29:44.067Z,75.10
2023-04-22T23:32:50.088Z,75.10
2023-04-22T23:35:56.055Z,75.20
2023-04-22T23:39:04.039Z,75.10
2023-04-22T23:42:07.841Z,75.20
2023-04-22T23:45:13.659Z,74.90
2023-04-22T23:48:17.388Z,75.50
2023-04-22T23:51:23.517Z,75.40
2023-04-22T23:54:29.683Z,75.10
2023-04-22T23:57:35.889Z,75.00
